Kezdőlap
METAR-TAF:

METAR-TAF

Repülőterek :

Clyde, Nunavut, Kanada

földrajzi szélesség: 70-29N, földrajzi hosszúság: 068-31W, magasság: 25 m

Jelenlegi meteorológiai megfigyelések

A jelentés 29 perccel ezelõtt készült, 01:00 UTC
Délnyugati szél 12 kt széllökések: 17 kt
Hőmérséklet -2°C
Páratartalom 74%
Légköri nyomás 1001 hPa
Látótávolság: 14.5 km
Szakadozott felhőzet 8500 lábon

METAR: CYCY 210100Z AUTO 22012G17KT 9SM BKN085 M02/M06 A2957 RMK SLP018

Idő: 21:29 (01:29 UTC)

Előrejelzés

A jelentés 51 perccel ezelõtt készült, 00:38 UTC
Az előrejelzés 21-én 01 óra UTC és 21-én 13 óra UTC között érvényes
Dél-délnyugati szél 12 kt
Látótávolság: 10 km
Szórványos felhőzet 8000 lábon
21-én 01 óra UTC és 21-én 13 óra UTC között ideiglenes
Szakadozott felhőzet 8000 lábon

TAF: CYCY 210038Z 2101/2113 21012KT P6SM SCT080 TEMPO 2101/2113 BKN080 RMK FCST BASED ON AUTO OBS. NXT FCST BY 210700Z

Meteorológiai megfigyelések és előrejelzések több, mint 4000 repülőtéren (METAR és TAF jelentéseket).

A térképen piros és sárga pontok jelzik az elérhető meteorológiai állomásokat.

Mozgassa az egeret a pont fölött, hogy megjelenjen az állomás neve.

Azután kattintson az időjárási megfigyelések és előrejelzések megtekintéséhez.

A térkép megváltoztatása: kattintson a fekete keresztel jelölt zöld gombra ráközelítéshez, a vonallal jelölt zöld gombra távolításhoz, vagy a zöld nyilakra a szomszédos térképek eléréséhez.


METAR-TAF: